sensor_id;sensor_type;location;lat;lon;timestamp;P1;durP1;ratioP1;P2;durP2;ratioP2
2860;SDS011;1438;50.922;6.704;2023-06-05T00:01:44;1.90;;;1.30;;
2860;SDS011;1438;50.922;6.704;2023-06-05T00:04:10;2.03;;;1.83;;
2860;SDS011;1438;50.922;6.704;2023-06-05T00:06:37;2.73;;;2.00;;
2860;SDS011;1438;50.922;6.704;2023-06-05T00:09:03;2.47;;;2.27;;
2860;SDS011;1438;50.922;6.704;2023-06-05T00:11:29;3.70;;;2.20;;
2860;SDS011;1438;50.922;6.704;2023-06-05T00:13:56;1.83;;;1.67;;
2860;SDS011;1438;50.922;6.704;2023-06-05T00:16:22;2.53;;;2.33;;
2860;SDS011;1438;50.922;6.704;2023-06-05T00:18:48;2.47;;;1.97;;
2860;SDS011;1438;50.922;6.704;2023-06-05T00:21:14;2.23;;;1.80;;
2860;SDS011;1438;50.922;6.704;2023-06-05T00:23:40;2.50;;;2.20;;
2860;SDS011;1438;50.922;6.704;2023-06-05T00:26:07;5.00;;;1.90;;
2860;SDS011;1438;50.922;6.704;2023-06-05T00:28:33;3.70;;;2.10;;
2860;SDS011;1438;50.922;6.704;2023-06-05T00:30:59;2.17;;;1.63;;
2860;SDS011;1438;50.922;6.704;2023-06-05T00:33:25;3.00;;;2.10;;
2860;SDS011;1438;50.922;6.704;2023-06-05T00:35:52;4.53;;;2.57;;
2860;SDS011;1438;50.922;6.704;2023-06-05T00:38:18;4.10;;;2.03;;
2860;SDS011;1438;50.922;6.704;2023-06-05T00:40:45;4.47;;;2.60;;
2860;SDS011;1438;50.922;6.704;2023-06-05T00:43:11;2.00;;;1.80;;
2860;SDS011;1438;50.922;6.704;2023-06-05T00:45:37;4.97;;;2.13;;
2860;SDS011;1438;50.922;6.704;2023-06-05T00:48:04;4.53;;;2.10;;
2860;SDS011;1438;50.922;6.704;2023-06-05T00:50:31;3.17;;;1.93;;
2860;SDS011;1438;50.922;6.704;2023-06-05T00:52:57;2.90;;;2.10;;
2860;SDS011;1438;50.922;6.704;2023-06-05T00:55:24;2.83;;;2.03;;
2860;SDS011;1438;50.922;6.704;2023-06-05T00:57:52;3.40;;;2.20;;
2860;SDS011;1438;50.922;6.704;2023-06-05T01:00:18;3.00;;;1.97;;
2860;SDS011;1438;50.922;6.704;2023-06-05T01:02:44;2.30;;;1.80;;
2860;SDS011;1438;50.922;6.704;2023-06-05T01:05:10;3.60;;;2.50;;
2860;SDS011;1438;50.922;6.704;2023-06-05T01:07:38;3.77;;;2.67;;
2860;SDS011;1438;50.922;6.704;2023-06-05T01:10:05;3.00;;;1.77;;
2860;SDS011;1438;50.922;6.704;2023-06-05T01:12:41;3.13;;;2.00;;
2860;SDS011;1438;50.922;6.704;2023-06-05T01:15:09;3.53;;;2.90;;
2860;SDS011;1438;50.922;6.704;2023-06-05T01:17:35;6.30;;;2.20;;
2860;SDS011;1438;50.922;6.704;2023-06-05T01:20:02;2.77;;;2.33;;
2860;SDS011;1438;50.922;6.704;2023-06-05T01:22:31;4.70;;;2.00;;
2860;SDS011;1438;50.922;6.704;2023-06-05T01:24:59;5.13;;;2.30;;
2860;SDS011;1438;50.922;6.704;2023-06-05T01:27:44;2.73;;;1.93;;
2860;SDS011;1438;50.922;6.704;2023-06-05T01:30:27;2.90;;;2.20;;
2860;SDS011;1438;50.922;6.704;2023-06-05T01:33:15;3.27;;;2.40;;
2860;SDS011;1438;50.922;6.704;2023-06-05T01:35:42;3.23;;;2.13;;
2860;SDS011;1438;50.922;6.704;2023-06-05T01:38:09;2.80;;;1.93;;
2860;SDS011;1438;50.922;6.704;2023-06-05T01:40:36;4.00;;;2.50;;
2860;SDS011;1438;50.922;6.704;2023-06-05T01:43:03;5.67;;;2.03;;
2860;SDS011;1438;50.922;6.704;2023-06-05T01:45:30;2.37;;;2.07;;
2860;SDS011;1438;50.922;6.704;2023-06-05T01:47:57;2.77;;;1.97;;
2860;SDS011;1438;50.922;6.704;2023-06-05T01:50:23;2.60;;;2.10;;
2860;SDS011;1438;50.922;6.704;2023-06-05T01:52:50;3.00;;;2.23;;
2860;SDS011;1438;50.922;6.704;2023-06-05T01:55:20;7.73;;;2.43;;
2860;SDS011;1438;50.922;6.704;2023-06-05T01:57:49;3.97;;;2.30;;
2860;SDS011;1438;50.922;6.704;2023-06-05T02:00:15;2.30;;;1.90;;
2860;SDS011;1438;50.922;6.704;2023-06-05T02:02:42;3.00;;;2.07;;
2860;SDS011;1438;50.922;6.704;2023-06-05T02:05:10;3.97;;;2.10;;
2860;SDS011;1438;50.922;6.704;2023-06-05T02:07:40;2.40;;;2.20;;
2860;SDS011;1438;50.922;6.704;2023-06-05T02:10:07;4.60;;;2.50;;
2860;SDS011;1438;50.922;6.704;2023-06-05T02:12:33;3.43;;;2.27;;
2860;SDS011;1438;50.922;6.704;2023-06-05T02:15:02;4.10;;;2.00;;
2860;SDS011;1438;50.922;6.704;2023-06-05T02:17:29;2.40;;;2.20;;
2860;SDS011;1438;50.922;6.704;2023-06-05T02:19:55;4.17;;;2.40;;
2860;SDS011;1438;50.922;6.704;2023-06-05T02:22:21;3.60;;;2.30;;
2860;SDS011;1438;50.922;6.704;2023-06-05T02:24:48;3.17;;;2.10;;
2860;SDS011;1438;50.922;6.704;2023-06-05T02:27:16;3.07;;;2.10;;
2860;SDS011;1438;50.922;6.704;2023-06-05T02:29:43;5.33;;;2.17;;
2860;SDS011;1438;50.922;6.704;2023-06-05T02:32:09;2.70;;;2.20;;
2860;SDS011;1438;50.922;6.704;2023-06-05T02:34:36;6.17;;;2.53;;
2860;SDS011;1438;50.922;6.704;2023-06-05T02:37:02;2.70;;;2.30;;
2860;SDS011;1438;50.922;6.704;2023-06-05T02:39:29;3.47;;;2.10;;
2860;SDS011;1438;50.922;6.704;2023-06-05T02:41:57;2.73;;;2.23;;
2860;SDS011;1438;50.922;6.704;2023-06-05T02:44:23;5.00;;;2.30;;
2860;SDS011;1438;50.922;6.704;2023-06-05T02:46:49;5.23;;;2.53;;
2860;SDS011;1438;50.922;6.704;2023-06-05T02:49:15;4.70;;;2.30;;
2860;SDS011;1438;50.922;6.704;2023-06-05T02:51:41;2.60;;;2.27;;
2860;SDS011;1438;50.922;6.704;2023-06-05T02:54:07;5.00;;;3.17;;
2860;SDS011;1438;50.922;6.704;2023-06-05T02:56:33;4.70;;;2.50;;
2860;SDS011;1438;50.922;6.704;2023-06-05T02:58:59;3.53;;;2.90;;
2860;SDS011;1438;50.922;6.704;2023-06-05T03:01:27;3.80;;;2.60;;
2860;SDS011;1438;50.922;6.704;2023-06-05T03:03:59;2.93;;;2.30;;
2860;SDS011;1438;50.922;6.704;2023-06-05T03:06:27;4.20;;;2.43;;
2860;SDS011;1438;50.922;6.704;2023-06-05T03:08:53;3.20;;;2.47;;
2860;SDS011;1438;50.922;6.704;2023-06-05T03:11:20;8.40;;;3.40;;
2860;SDS011;1438;50.922;6.704;2023-06-05T03:13:49;3.80;;;2.30;;
2860;SDS011;1438;50.922;6.704;2023-06-05T03:16:15;4.50;;;2.70;;
2860;SDS011;1438;50.922;6.704;2023-06-05T03:18:42;3.60;;;2.73;;
2860;SDS011;1438;50.922;6.704;2023-06-05T03:21:08;6.03;;;2.47;;
2860;SDS011;1438;50.922;6.704;2023-06-05T03:23:35;3.80;;;2.60;;
2860;SDS011;1438;50.922;6.704;2023-06-05T03:26:01;4.40;;;3.50;;
2860;SDS011;1438;50.922;6.704;2023-06-05T03:28:28;4.77;;;3.30;;
2860;SDS011;1438;50.922;6.704;2023-06-05T03:30:55;7.43;;;3.37;;
2860;SDS011;1438;50.922;6.704;2023-06-05T03:33:21;6.00;;;3.63;;
2860;SDS011;1438;50.922;6.704;2023-06-05T03:35:48;3.10;;;2.50;;
2860;SDS011;1438;50.922;6.704;2023-06-05T03:38:15;5.73;;;3.73;;
2860;SDS011;1438;50.922;6.704;2023-06-05T03:40:40;5.33;;;3.40;;
2860;SDS011;1438;50.922;6.704;2023-06-05T03:43:07;4.60;;;2.93;;
2860;SDS011;1438;50.922;6.704;2023-06-05T03:45:34;9.40;;;3.00;;
2860;SDS011;1438;50.922;6.704;2023-06-05T03:48:00;4.57;;;3.03;;
2860;SDS011;1438;50.922;6.704;2023-06-05T03:50:27;4.70;;;3.00;;
2860;SDS011;1438;50.922;6.704;2023-06-05T03:52:54;6.80;;;3.60;;
2860;SDS011;1438;50.922;6.704;2023-06-05T03:55:33;5.60;;;3.80;;
2860;SDS011;1438;50.922;6.704;2023-06-05T03:58:10;4.47;;;2.80;;
2860;SDS011;1438;50.922;6.704;2023-06-05T04:00:39;7.87;;;4.00;;
2860;SDS011;1438;50.922;6.704;2023-06-05T04:03:05;8.50;;;3.13;;
2860;SDS011;1438;50.922;6.704;2023-06-05T04:05:33;7.13;;;3.50;;
2860;SDS011;1438;50.922;6.704;2023-06-05T04:07:59;6.20;;;3.97;;
2860;SDS011;1438;50.922;6.704;2023-06-05T04:10:26;6.30;;;3.70;;
2860;SDS011;1438;50.922;6.704;2023-06-05T04:12:52;5.77;;;3.60;;
2860;SDS011;1438;50.922;6.704;2023-06-05T04:15:18;11.30;;;5.07;;
2860;SDS011;1438;50.922;6.704;2023-06-05T04:17:44;4.57;;;3.70;;
2860;SDS011;1438;50.922;6.704;2023-06-05T04:20:10;7.33;;;3.47;;
2860;SDS011;1438;50.922;6.704;2023-06-05T04:22:39;5.17;;;3.70;;
2860;SDS011;1438;50.922;6.704;2023-06-05T04:25:05;5.10;;;3.50;;
2860;SDS011;1438;50.922;6.704;2023-06-05T04:27:31;11.20;;;3.77;;
2860;SDS011;1438;50.922;6.704;2023-06-05T04:29:58;7.80;;;4.13;;
2860;SDS011;1438;50.922;6.704;2023-06-05T04:32:24;4.27;;;3.30;;
2860;SDS011;1438;50.922;6.704;2023-06-05T04:34:50;7.80;;;3.80;;
2860;SDS011;1438;50.922;6.704;2023-06-05T04:37:17;7.20;;;3.93;;
2860;SDS011;1438;50.922;6.704;2023-06-05T04:39:43;5.07;;;4.17;;
2860;SDS011;1438;50.922;6.704;2023-06-05T04:42:10;7.60;;;4.33;;
2860;SDS011;1438;50.922;6.704;2023-06-05T04:44:36;6.90;;;4.00;;
2860;SDS011;1438;50.922;6.704;2023-06-05T04:47:03;6.10;;;4.13;;
2860;SDS011;1438;50.922;6.704;2023-06-05T04:49:31;7.03;;;4.10;;
2860;SDS011;1438;50.922;6.704;2023-06-05T04:51:57;7.90;;;4.77;;
2860;SDS011;1438;50.922;6.704;2023-06-05T04:54:24;5.67;;;4.37;;
2860;SDS011;1438;50.922;6.704;2023-06-05T04:56:50;5.27;;;4.00;;
2860;SDS011;1438;50.922;6.704;2023-06-05T04:59:17;9.50;;;4.50;;
2860;SDS011;1438;50.922;6.704;2023-06-05T05:01:44;7.00;;;3.90;;
2860;SDS011;1438;50.922;6.704;2023-06-05T05:04:10;6.77;;;4.47;;
2860;SDS011;1438;50.922;6.704;2023-06-05T05:06:37;6.93;;;4.67;;
2860;SDS011;1438;50.922;6.704;2023-06-05T05:09:04;7.73;;;4.13;;
2860;SDS011;1438;50.922;6.704;2023-06-05T05:11:30;4.90;;;4.07;;
2860;SDS011;1438;50.922;6.704;2023-06-05T05:13:56;7.43;;;4.07;;
2860;SDS011;1438;50.922;6.704;2023-06-05T05:16:22;7.30;;;4.70;;
2860;SDS011;1438;50.922;6.704;2023-06-05T05:18:50;8.47;;;4.83;;
2860;SDS011;1438;50.922;6.704;2023-06-05T05:21:16;5.20;;;4.40;;
2860;SDS011;1438;50.922;6.704;2023-06-05T05:23:43;10.87;;;4.93;;
2860;SDS011;1438;50.922;6.704;2023-06-05T05:26:09;6.70;;;4.93;;
2860;SDS011;1438;50.922;6.704;2023-06-05T05:28:35;5.53;;;4.63;;
2860;SDS011;1438;50.922;6.704;2023-06-05T05:31:01;10.17;;;5.47;;
2860;SDS011;1438;50.922;6.704;2023-06-05T05:33:29;6.30;;;5.57;;
2860;SDS011;1438;50.922;6.704;2023-06-05T05:35:55;10.67;;;5.10;;
2860;SDS011;1438;50.922;6.704;2023-06-05T05:38:21;7.63;;;4.70;;
2860;SDS011;1438;50.922;6.704;2023-06-05T05:40:47;6.10;;;5.10;;
2860;SDS011;1438;50.922;6.704;2023-06-05T05:43:13;7.57;;;5.27;;
2860;SDS011;1438;50.922;6.704;2023-06-05T05:45:40;7.87;;;5.80;;
2860;SDS011;1438;50.922;6.704;2023-06-05T05:48:08;9.70;;;5.50;;
2860;SDS011;1438;50.922;6.704;2023-06-05T05:50:34;8.27;;;5.43;;
2860;SDS011;1438;50.922;6.704;2023-06-05T05:53:01;10.50;;;5.63;;
2860;SDS011;1438;50.922;6.704;2023-06-05T05:55:28;5.03;;;4.60;;
2860;SDS011;1438;50.922;6.704;2023-06-05T05:57:54;7.60;;;4.60;;
2860;SDS011;1438;50.922;6.704;2023-06-05T06:00:20;8.33;;;5.77;;
2860;SDS011;1438;50.922;6.704;2023-06-05T06:02:46;9.37;;;5.80;;
2860;SDS011;1438;50.922;6.704;2023-06-05T06:05:12;5.60;;;4.27;;
2860;SDS011;1438;50.922;6.704;2023-06-05T06:07:38;9.40;;;5.10;;
2860;SDS011;1438;50.922;6.704;2023-06-05T06:10:07;9.30;;;5.27;;
2860;SDS011;1438;50.922;6.704;2023-06-05T06:12:33;8.97;;;5.07;;
2860;SDS011;1438;50.922;6.704;2023-06-05T06:14:59;7.70;;;5.00;;
2860;SDS011;1438;50.922;6.704;2023-06-05T06:17:25;8.70;;;4.70;;
2860;SDS011;1438;50.922;6.704;2023-06-05T06:19:52;10.20;;;4.60;;
2860;SDS011;1438;50.922;6.704;2023-06-05T06:22:18;7.70;;;5.37;;
2860;SDS011;1438;50.922;6.704;2023-06-05T06:24:44;8.93;;;4.97;;
2860;SDS011;1438;50.922;6.704;2023-06-05T06:27:11;8.30;;;5.47;;
2860;SDS011;1438;50.922;6.704;2023-06-05T06:29:47;6.43;;;4.27;;
2860;SDS011;1438;50.922;6.704;2023-06-05T06:32:14;7.70;;;4.80;;
2860;SDS011;1438;50.922;6.704;2023-06-05T06:34:40;5.90;;;5.30;;
2860;SDS011;1438;50.922;6.704;2023-06-05T06:37:06;8.17;;;4.90;;
2860;SDS011;1438;50.922;6.704;2023-06-05T06:39:32;7.50;;;4.83;;
2860;SDS011;1438;50.922;6.704;2023-06-05T06:41:59;7.53;;;4.83;;
2860;SDS011;1438;50.922;6.704;2023-06-05T06:44:25;6.63;;;4.80;;
2860;SDS011;1438;50.922;6.704;2023-06-05T06:46:53;8.80;;;4.87;;
2860;SDS011;1438;50.922;6.704;2023-06-05T06:49:19;7.70;;;5.53;;
2860;SDS011;1438;50.922;6.704;2023-06-05T06:51:45;10.40;;;5.17;;
2860;SDS011;1438;50.922;6.704;2023-06-05T06:54:11;9.50;;;6.00;;
2860;SDS011;1438;50.922;6.704;2023-06-05T06:56:37;6.77;;;4.70;;
2860;SDS011;1438;50.922;6.704;2023-06-05T06:59:10;9.53;;;4.60;;
2860;SDS011;1438;50.922;6.704;2023-06-05T07:01:41;7.13;;;4.40;;
2860;SDS011;1438;50.922;6.704;2023-06-05T07:04:07;5.83;;;5.10;;
2860;SDS011;1438;50.922;6.704;2023-06-05T07:06:33;6.90;;;3.80;;
2860;SDS011;1438;50.922;6.704;2023-06-05T07:08:59;5.57;;;4.47;;
2860;SDS011;1438;50.922;6.704;2023-06-05T07:11:25;6.97;;;4.27;;
2860;SDS011;1438;50.922;6.704;2023-06-05T07:13:51;5.03;;;3.90;;
2860;SDS011;1438;50.922;6.704;2023-06-05T07:16:19;5.53;;;4.10;;
2860;SDS011;1438;50.922;6.704;2023-06-05T07:18:45;7.20;;;4.20;;
2860;SDS011;1438;50.922;6.704;2023-06-05T07:21:11;5.43;;;4.13;;
2860;SDS011;1438;50.922;6.704;2023-06-05T07:23:37;6.17;;;4.00;;
2860;SDS011;1438;50.922;6.704;2023-06-05T07:26:04;7.10;;;4.00;;
2860;SDS011;1438;50.922;6.704;2023-06-05T07:28:30;6.83;;;4.13;;
2860;SDS011;1438;50.922;6.704;2023-06-05T07:30:56;9.60;;;4.13;;
2860;SDS011;1438;50.922;6.704;2023-06-05T07:33:22;5.23;;;3.80;;
2860;SDS011;1438;50.922;6.704;2023-06-05T07:35:48;6.63;;;3.77;;
2860;SDS011;1438;50.922;6.704;2023-06-05T07:38:14;7.93;;;4.43;;
2860;SDS011;1438;50.922;6.704;2023-06-05T07:40:40;5.83;;;3.67;;
2860;SDS011;1438;50.922;6.704;2023-06-05T07:43:06;9.70;;;3.87;;
2860;SDS011;1438;50.922;6.704;2023-06-05T07:45:37;5.90;;;3.13;;
2860;SDS011;1438;50.922;6.704;2023-06-05T07:48:05;7.67;;;3.43;;
2860;SDS011;1438;50.922;6.704;2023-06-05T07:50:31;6.53;;;3.40;;
2860;SDS011;1438;50.922;6.704;2023-06-05T07:52:57;5.27;;;3.30;;
2860;SDS011;1438;50.922;6.704;2023-06-05T07:55:23;5.23;;;3.37;;
2860;SDS011;1438;50.922;6.704;2023-06-05T07:57:49;14.53;;;4.20;;
2860;SDS011;1438;50.922;6.704;2023-06-05T08:00:18;6.17;;;3.50;;
2860;SDS011;1438;50.922;6.704;2023-06-05T08:02:44;3.20;;;2.83;;
2860;SDS011;1438;50.922;6.704;2023-06-05T08:05:10;6.77;;;2.97;;
2860;SDS011;1438;50.922;6.704;2023-06-05T08:07:36;6.60;;;4.00;;
2860;SDS011;1438;50.922;6.704;2023-06-05T08:10:02;6.13;;;3.20;;
2860;SDS011;1438;50.922;6.704;2023-06-05T08:12:28;6.07;;;3.47;;
2860;SDS011;1438;50.922;6.704;2023-06-05T08:14:54;9.67;;;2.97;;
2860;SDS011;1438;50.922;6.704;2023-06-05T08:17:20;4.87;;;3.30;;
2860;SDS011;1438;50.922;6.704;2023-06-05T08:19:46;4.93;;;2.80;;
2860;SDS011;1438;50.922;6.704;2023-06-05T08:22:12;9.17;;;3.10;;
2860;SDS011;1438;50.922;6.704;2023-06-05T08:24:39;4.90;;;3.20;;
2860;SDS011;1438;50.922;6.704;2023-06-05T08:27:05;4.27;;;3.07;;
2860;SDS011;1438;50.922;6.704;2023-06-05T08:29:32;3.30;;;2.50;;
2860;SDS011;1438;50.922;6.704;2023-06-05T08:32:02;4.43;;;3.10;;
2860;SDS011;1438;50.922;6.704;2023-06-05T08:34:28;4.97;;;3.37;;
2860;SDS011;1438;50.922;6.704;2023-06-05T08:36:55;6.00;;;3.73;;
2860;SDS011;1438;50.922;6.704;2023-06-05T08:39:23;5.50;;;2.63;;
2860;SDS011;1438;50.922;6.704;2023-06-05T08:41:52;8.00;;;2.90;;
2860;SDS011;1438;50.922;6.704;2023-06-05T08:44:24;4.57;;;2.70;;
2860;SDS011;1438;50.922;6.704;2023-06-05T08:46:50;6.97;;;2.93;;
2860;SDS011;1438;50.922;6.704;2023-06-05T08:49:17;6.63;;;3.07;;
2860;SDS011;1438;50.922;6.704;2023-06-05T08:51:48;4.20;;;2.70;;
2860;SDS011;1438;50.922;6.704;2023-06-05T08:54:17;4.70;;;2.83;;
2860;SDS011;1438;50.922;6.704;2023-06-05T08:56:44;4.03;;;3.17;;
2860;SDS011;1438;50.922;6.704;2023-06-05T08:59:13;6.20;;;3.50;;
2860;SDS011;1438;50.922;6.704;2023-06-05T09:01:39;4.40;;;2.87;;
2860;SDS011;1438;50.922;6.704;2023-06-05T09:04:05;4.03;;;3.20;;
2860;SDS011;1438;50.922;6.704;2023-06-05T09:06:31;6.50;;;3.27;;
2860;SDS011;1438;50.922;6.704;2023-06-05T09:08:58;6.53;;;2.93;;
2860;SDS011;1438;50.922;6.704;2023-06-05T09:11:26;4.40;;;2.90;;
2860;SDS011;1438;50.922;6.704;2023-06-05T09:13:54;4.87;;;3.70;;
2860;SDS011;1438;50.922;6.704;2023-06-05T09:16:21;3.80;;;2.80;;
2860;SDS011;1438;50.922;6.704;2023-06-05T09:18:51;7.10;;;2.97;;
2860;SDS011;1438;50.922;6.704;2023-06-05T09:21:18;4.37;;;3.07;;
2860;SDS011;1438;50.922;6.704;2023-06-05T09:23:44;6.00;;;2.47;;
2860;SDS011;1438;50.922;6.704;2023-06-05T09:26:10;5.80;;;3.03;;
2860;SDS011;1438;50.922;6.704;2023-06-05T09:28:52;6.80;;;2.70;;
2860;SDS011;1438;50.922;6.704;2023-06-05T09:31:19;6.73;;;3.30;;
2860;SDS011;1438;50.922;6.704;2023-06-05T09:33:53;4.63;;;2.80;;
2860;SDS011;1438;50.922;6.704;2023-06-05T09:36:20;6.70;;;2.73;;
2860;SDS011;1438;50.922;6.704;2023-06-05T09:38:46;5.40;;;2.90;;
2860;SDS011;1438;50.922;6.704;2023-06-05T09:41:13;5.27;;;2.77;;
2860;SDS011;1438;50.922;6.704;2023-06-05T09:43:45;4.77;;;2.80;;
2860;SDS011;1438;50.922;6.704;2023-06-05T09:46:14;5.43;;;3.00;;
2860;SDS011;1438;50.922;6.704;2023-06-05T09:48:41;5.20;;;2.77;;
2860;SDS011;1438;50.922;6.704;2023-06-05T09:51:12;5.10;;;2.40;;
2860;SDS011;1438;50.922;6.704;2023-06-05T09:53:40;4.73;;;2.77;;
2860;SDS011;1438;50.922;6.704;2023-06-05T09:56:08;3.10;;;2.33;;
2860;SDS011;1438;50.922;6.704;2023-06-05T09:58:35;3.53;;;2.10;;
2860;SDS011;1438;50.922;6.704;2023-06-05T10:01:03;2.60;;;2.20;;
2860;SDS011;1438;50.922;6.704;2023-06-05T10:03:32;5.30;;;2.30;;
2860;SDS011;1438;50.922;6.704;2023-06-05T10:06:00;3.00;;;2.13;;
2860;SDS011;1438;50.922;6.704;2023-06-05T10:08:27;6.30;;;2.90;;
2860;SDS011;1438;50.922;6.704;2023-06-05T10:10:53;3.67;;;2.60;;
2860;SDS011;1438;50.922;6.704;2023-06-05T10:13:19;4.53;;;2.23;;
2860;SDS011;1438;50.922;6.704;2023-06-05T10:15:45;3.50;;;2.07;;
2860;SDS011;1438;50.922;6.704;2023-06-05T10:18:11;2.60;;;2.20;;
2860;SDS011;1438;50.922;6.704;2023-06-05T10:20:37;4.40;;;2.40;;
2860;SDS011;1438;50.922;6.704;2023-06-05T10:23:03;4.30;;;2.00;;
2860;SDS011;1438;50.922;6.704;2023-06-05T10:25:31;4.57;;;3.30;;
2860;SDS011;1438;50.922;6.704;2023-06-05T10:28:20;4.73;;;2.57;;
2860;SDS011;1438;50.922;6.704;2023-06-05T10:33:39;3.50;;;2.00;;
2860;SDS011;1438;50.922;6.704;2023-06-05T10:36:18;4.87;;;2.20;;
2860;SDS011;1438;50.922;6.704;2023-06-05T10:38:51;2.33;;;2.00;;
2860;SDS011;1438;50.922;6.704;2023-06-05T10:41:17;2.80;;;2.20;;
2860;SDS011;1438;50.922;6.704;2023-06-05T10:43:51;3.23;;;2.37;;
2860;SDS011;1438;50.922;6.704;2023-06-05T10:49:11;3.80;;;2.30;;
2860;SDS011;1438;50.922;6.704;2023-06-05T10:51:41;3.77;;;2.00;;
2860;SDS011;1438;50.922;6.704;2023-06-05T10:54:12;3.43;;;2.20;;
2860;SDS011;1438;50.922;6.704;2023-06-05T10:57:02;4.70;;;2.27;;
2860;SDS011;1438;50.922;6.704;2023-06-05T10:59:31;2.73;;;2.10;;
2860;SDS011;1438;50.922;6.704;2023-06-05T11:07:14;2.40;;;2.20;;
2860;SDS011;1438;50.922;6.704;2023-06-05T11:17:32;5.00;;;2.40;;
2860;SDS011;1438;50.922;6.704;2023-06-05T11:19:59;2.80;;;1.97;;
2860;SDS011;1438;50.922;6.704;2023-06-05T11:22:25;4.17;;;2.00;;
2860;SDS011;1438;50.922;6.704;2023-06-05T11:27:57;3.90;;;2.13;;
2860;SDS011;1438;50.922;6.704;2023-06-05T11:30:26;5.60;;;2.40;;
2860;SDS011;1438;50.922;6.704;2023-06-05T11:32:56;3.83;;;2.27;;
2860;SDS011;1438;50.922;6.704;2023-06-05T11:35:26;5.40;;;2.90;;
2860;SDS011;1438;50.922;6.704;2023-06-05T11:38:16;3.77;;;2.50;;
2860;SDS011;1438;50.922;6.704;2023-06-05T11:40:42;2.60;;;2.10;;
2860;SDS011;1438;50.922;6.704;2023-06-05T11:43:09;4.30;;;1.90;;
2860;SDS011;1438;50.922;6.704;2023-06-05T11:45:36;3.67;;;2.20;;
2860;SDS011;1438;50.922;6.704;2023-06-05T11:48:09;3.00;;;2.53;;
2860;SDS011;1438;50.922;6.704;2023-06-05T11:50:35;4.30;;;2.00;;
2860;SDS011;1438;50.922;6.704;2023-06-05T11:53:10;3.60;;;2.60;;
2860;SDS011;1438;50.922;6.704;2023-06-05T11:55:36;6.60;;;2.90;;
2860;SDS011;1438;50.922;6.704;2023-06-05T11:58:28;4.70;;;2.53;;
2860;SDS011;1438;50.922;6.704;2023-06-05T12:03:30;3.17;;;2.00;;
2860;SDS011;1438;50.922;6.704;2023-06-05T12:05:57;4.70;;;2.63;;
2860;SDS011;1438;50.922;6.704;2023-06-05T12:08:27;2.93;;;2.63;;
2860;SDS011;1438;50.922;6.704;2023-06-05T12:10:55;5.00;;;2.20;;
2860;SDS011;1438;50.922;6.704;2023-06-05T12:13:21;3.33;;;2.20;;
2860;SDS011;1438;50.922;6.704;2023-06-05T12:15:59;2.60;;;2.40;;
2860;SDS011;1438;50.922;6.704;2023-06-05T12:18:32;4.63;;;2.40;;
2860;SDS011;1438;50.922;6.704;2023-06-05T12:20:58;4.47;;;2.33;;
2860;SDS011;1438;50.922;6.704;2023-06-05T12:23:24;2.17;;;1.97;;
2860;SDS011;1438;50.922;6.704;2023-06-05T12:26:00;12.47;;;2.60;;
2860;SDS011;1438;50.922;6.704;2023-06-05T12:28:27;3.40;;;2.40;;
2860;SDS011;1438;50.922;6.704;2023-06-05T12:30:53;4.30;;;2.40;;
2860;SDS011;1438;50.922;6.704;2023-06-05T12:33:19;4.33;;;2.20;;
2860;SDS011;1438;50.922;6.704;2023-06-05T12:35:46;3.73;;;2.33;;
2860;SDS011;1438;50.922;6.704;2023-06-05T12:38:13;5.73;;;2.70;;
2860;SDS011;1438;50.922;6.704;2023-06-05T12:40:39;3.10;;;2.30;;
2860;SDS011;1438;50.922;6.704;2023-06-05T12:43:15;4.37;;;2.20;;
2860;SDS011;1438;50.922;6.704;2023-06-05T12:45:42;4.80;;;2.40;;
2860;SDS011;1438;50.922;6.704;2023-06-05T12:48:08;4.33;;;2.57;;
2860;SDS011;1438;50.922;6.704;2023-06-05T12:50:35;2.40;;;2.20;;
2860;SDS011;1438;50.922;6.704;2023-06-05T12:53:01;4.93;;;2.77;;
2860;SDS011;1438;50.922;6.704;2023-06-05T12:55:27;8.13;;;2.50;;
2860;SDS011;1438;50.922;6.704;2023-06-05T12:57:53;3.43;;;2.60;;
2860;SDS011;1438;50.922;6.704;2023-06-05T13:00:19;4.03;;;2.53;;
2860;SDS011;1438;50.922;6.704;2023-06-05T13:02:46;3.67;;;2.63;;
2860;SDS011;1438;50.922;6.704;2023-06-05T13:05:13;2.57;;;2.20;;
2860;SDS011;1438;50.922;6.704;2023-06-05T13:07:40;5.43;;;2.47;;
2860;SDS011;1438;50.922;6.704;2023-06-05T13:10:06;3.00;;;2.33;;
2860;SDS011;1438;50.922;6.704;2023-06-05T13:12:33;3.00;;;2.53;;
2860;SDS011;1438;50.922;6.704;2023-06-05T13:14:59;3.83;;;3.00;;
2860;SDS011;1438;50.922;6.704;2023-06-05T13:17:27;5.23;;;2.77;;
2860;SDS011;1438;50.922;6.704;2023-06-05T13:19:58;6.00;;;2.80;;
2860;SDS011;1438;50.922;6.704;2023-06-05T13:22:24;3.50;;;2.80;;
2860;SDS011;1438;50.922;6.704;2023-06-05T13:24:50;3.10;;;2.23;;
2860;SDS011;1438;50.922;6.704;2023-06-05T13:27:16;2.93;;;2.47;;
2860;SDS011;1438;50.922;6.704;2023-06-05T13:29:43;3.20;;;2.90;;
2860;SDS011;1438;50.922;6.704;2023-06-05T13:32:09;8.50;;;2.23;;
2860;SDS011;1438;50.922;6.704;2023-06-05T13:34:35;5.33;;;2.53;;
2860;SDS011;1438;50.922;6.704;2023-06-05T13:37:02;5.40;;;2.50;;
2860;SDS011;1438;50.922;6.704;2023-06-05T13:39:28;3.70;;;2.30;;
2860;SDS011;1438;50.922;6.704;2023-06-05T13:41:54;4.13;;;2.53;;
2860;SDS011;1438;50.922;6.704;2023-06-05T13:44:20;4.80;;;2.90;;
2860;SDS011;1438;50.922;6.704;2023-06-05T13:46:46;7.27;;;2.80;;
2860;SDS011;1438;50.922;6.704;2023-06-05T13:49:12;7.80;;;2.50;;
2860;SDS011;1438;50.922;6.704;2023-06-05T13:51:38;11.90;;;2.60;;
2860;SDS011;1438;50.922;6.704;2023-06-05T13:54:05;8.30;;;2.53;;
2860;SDS011;1438;50.922;6.704;2023-06-05T13:56:31;6.50;;;2.53;;
2860;SDS011;1438;50.922;6.704;2023-06-05T13:58:57;3.37;;;2.90;;
2860;SDS011;1438;50.922;6.704;2023-06-05T14:01:23;4.93;;;2.97;;
2860;SDS011;1438;50.922;6.704;2023-06-05T14:03:50;5.57;;;2.57;;
2860;SDS011;1438;50.922;6.704;2023-06-05T14:06:16;4.70;;;2.50;;
2860;SDS011;1438;50.922;6.704;2023-06-05T14:08:43;6.63;;;2.80;;
2860;SDS011;1438;50.922;6.704;2023-06-05T14:11:09;3.33;;;2.00;;
2860;SDS011;1438;50.922;6.704;2023-06-05T14:13:35;3.90;;;2.60;;
2860;SDS011;1438;50.922;6.704;2023-06-05T14:16:02;5.10;;;2.73;;
2860;SDS011;1438;50.922;6.704;2023-06-05T14:18:28;3.30;;;2.33;;
2860;SDS011;1438;50.922;6.704;2023-06-05T14:20:54;3.80;;;2.20;;
2860;SDS011;1438;50.922;6.704;2023-06-05T14:23:21;6.07;;;2.33;;
2860;SDS011;1438;50.922;6.704;2023-06-05T14:25:49;3.47;;;2.70;;
2860;SDS011;1438;50.922;6.704;2023-06-05T14:28:15;3.30;;;2.70;;
2860;SDS011;1438;50.922;6.704;2023-06-05T14:30:41;4.40;;;2.47;;
2860;SDS011;1438;50.922;6.704;2023-06-05T14:33:07;3.00;;;2.63;;
2860;SDS011;1438;50.922;6.704;2023-06-05T14:35:33;4.90;;;2.43;;
2860;SDS011;1438;50.922;6.704;2023-06-05T14:37:59;4.40;;;2.50;;
2860;SDS011;1438;50.922;6.704;2023-06-05T14:40:25;4.70;;;2.20;;
2860;SDS011;1438;50.922;6.704;2023-06-05T14:42:51;2.73;;;2.30;;
2860;SDS011;1438;50.922;6.704;2023-06-05T14:45:17;5.60;;;2.70;;
2860;SDS011;1438;50.922;6.704;2023-06-05T14:47:43;3.70;;;2.23;;
2860;SDS011;1438;50.922;6.704;2023-06-05T14:50:10;3.10;;;2.13;;
2860;SDS011;1438;50.922;6.704;2023-06-05T14:52:36;3.50;;;2.57;;
2860;SDS011;1438;50.922;6.704;2023-06-05T14:55:02;3.43;;;2.60;;
2860;SDS011;1438;50.922;6.704;2023-06-05T14:57:29;3.03;;;2.03;;
2860;SDS011;1438;50.922;6.704;2023-06-05T14:59:56;5.03;;;2.30;;
2860;SDS011;1438;50.922;6.704;2023-06-05T15:02:23;3.10;;;2.43;;
2860;SDS011;1438;50.922;6.704;2023-06-05T15:04:51;2.43;;;2.20;;
2860;SDS011;1438;50.922;6.704;2023-06-05T15:07:18;3.83;;;2.70;;
2860;SDS011;1438;50.922;6.704;2023-06-05T15:09:45;4.90;;;2.70;;
2860;SDS011;1438;50.922;6.704;2023-06-05T15:12:11;4.53;;;2.33;;
2860;SDS011;1438;50.922;6.704;2023-06-05T15:14:37;6.00;;;2.23;;
2860;SDS011;1438;50.922;6.704;2023-06-05T15:17:03;4.97;;;2.50;;
2860;SDS011;1438;50.922;6.704;2023-06-05T15:19:30;6.80;;;3.20;;
2860;SDS011;1438;50.922;6.704;2023-06-05T15:21:56;7.63;;;2.83;;
2860;SDS011;1438;50.922;6.704;2023-06-05T15:24:22;2.50;;;2.27;;
2860;SDS011;1438;50.922;6.704;2023-06-05T15:26:48;2.30;;;2.10;;
2860;SDS011;1438;50.922;6.704;2023-06-05T15:29:16;3.40;;;2.20;;
2860;SDS011;1438;50.922;6.704;2023-06-05T15:31:43;4.27;;;2.37;;
2860;SDS011;1438;50.922;6.704;2023-06-05T15:34:10;5.90;;;2.70;;
2860;SDS011;1438;50.922;6.704;2023-06-05T15:36:37;4.93;;;2.37;;
2860;SDS011;1438;50.922;6.704;2023-06-05T15:39:03;2.93;;;2.50;;
2860;SDS011;1438;50.922;6.704;2023-06-05T15:41:29;3.93;;;2.60;;